createdAt,value
2023-10-12T00:00:26.277Z,16.45
2023-10-12T00:01:27.948Z,16.42
2023-10-12T00:02:29.939Z,16.26
2023-10-12T00:03:32.002Z,16.27
2023-10-12T00:04:47.535Z,15.94
2023-10-12T00:05:49.223Z,16.34
2023-10-12T00:06:52.609Z,16.24
2023-10-12T00:07:57.246Z,16.32
2023-10-12T00:08:59.114Z,16.21
2023-10-12T00:10:10.615Z,16.23
2023-10-12T00:11:12.827Z,16.29
2023-10-12T00:12:22.604Z,16.26
2023-10-12T00:13:29.710Z,16.31
2023-10-12T00:14:33.306Z,16.28
2023-10-12T00:15:39.944Z,16.19
2023-10-12T00:16:44.166Z,16.18
2023-10-12T00:17:46.081Z,16.13
2023-10-12T00:18:50.642Z,16.03
2023-10-12T00:19:52.349Z,15.98
2023-10-12T00:20:55.499Z,16.07
2023-10-12T00:22:10.261Z,16.03
2023-10-12T00:23:13.266Z,16.07
2023-10-12T00:24:18.794Z,15.94
2023-10-12T00:25:21.398Z,15.91
2023-10-12T00:26:23.779Z,15.82
2023-10-12T00:27:27.668Z,15.83
2023-10-12T00:28:39.178Z,15.74
2023-10-12T00:29:40.882Z,15.67
2023-10-12T00:30:43.061Z,15.73
2023-10-12T00:31:44.889Z,15.66
2023-10-12T00:32:46.653Z,15.75
2023-10-12T00:33:50.946Z,15.72
2023-10-12T00:34:54.455Z,15.62
2023-10-12T00:36:02.819Z,15.66
2023-10-12T00:37:05.229Z,15.68
2023-10-12T00:38:25.194Z,15.62
2023-10-12T00:39:30.462Z,15.64
2023-10-12T00:40:33.208Z,15.63
2023-10-12T00:41:39.183Z,15.58
2023-10-12T00:42:45.056Z,15.53
2023-10-12T00:44:08.027Z,15.56
2023-10-12T00:45:20.482Z,15.56
2023-10-12T00:46:40.881Z,15.50
2023-10-12T00:47:45.750Z,15.52
2023-10-12T00:48:50.985Z,15.43
2023-10-12T00:49:52.707Z,15.44
2023-10-12T00:50:57.652Z,15.37
2023-10-12T00:52:09.577Z,15.39
2023-10-12T00:53:21.688Z,15.38
2023-10-12T00:54:42.075Z,15.32
2023-10-12T00:55:44.309Z,15.40
2023-10-12T00:56:45.880Z,15.39
2023-10-12T00:57:47.707Z,15.19
2023-10-12T00:58:49.563Z,15.27
2023-10-12T00:59:54.176Z,15.24
2023-10-12T01:01:05.311Z,15.27
2023-10-12T01:02:10.206Z,15.30
2023-10-12T01:03:31.972Z,15.45
2023-10-12T01:04:33.601Z,15.52
2023-10-12T01:05:37.957Z,15.57
2023-10-12T01:06:39.920Z,15.49
2023-10-12T01:07:43.714Z,15.50
2023-10-12T01:08:47.940Z,15.48
2023-10-12T01:09:49.720Z,15.45
2023-10-12T01:10:51.334Z,15.46
2023-10-12T01:11:59.843Z,15.46
2023-10-12T01:13:02.174Z,15.47
2023-10-12T01:14:03.796Z,15.28
2023-10-12T01:15:17.951Z,14.94
2023-10-12T01:16:24.322Z,15.23
2023-10-12T01:17:26.476Z,15.27
2023-10-12T01:18:29.658Z,15.28
2023-10-12T01:19:46.233Z,15.28
2023-10-12T01:20:50.582Z,15.33
2023-10-12T01:22:14.260Z,15.27
2023-10-12T01:23:15.796Z,15.32
2023-10-12T01:24:18.095Z,15.22
2023-10-12T01:25:31.907Z,15.23
2023-10-12T01:26:34.362Z,15.26
2023-10-12T01:27:42.460Z,15.19
2023-10-12T01:28:50.523Z,15.20
2023-10-12T01:29:59.965Z,15.21
2023-10-12T01:31:02.550Z,15.20
2023-10-12T01:32:25.216Z,15.13
2023-10-12T01:33:27.185Z,15.07
2023-10-12T01:34:30.922Z,15.09
2023-10-12T01:35:38.864Z,15.05
2023-10-12T01:36:44.589Z,15.03
2023-10-12T01:37:49.651Z,14.92
2023-10-12T01:39:14.645Z,14.61
2023-10-12T01:40:23.282Z,14.88
2023-10-12T01:41:28.330Z,14.97
2023-10-12T01:42:42.260Z,15.02
2023-10-12T01:43:44.942Z,15.00
2023-10-12T01:44:47.467Z,14.93
2023-10-12T01:45:55.030Z,14.98
2023-10-12T01:46:57.872Z,15.05
2023-10-12T01:48:18.302Z,15.08
2023-10-12T01:49:20.160Z,14.83
2023-10-12T01:50:22.172Z,14.95
2023-10-12T01:51:26.345Z,15.02
2023-10-12T01:52:27.986Z,15.07
2023-10-12T01:53:33.239Z,15.19
2023-10-12T01:54:34.902Z,15.22
2023-10-12T01:55:36.838Z,15.24
2023-10-12T01:56:38.658Z,15.30
2023-10-12T01:57:48.479Z,15.31
2023-10-12T01:58:52.568Z,15.34
2023-10-12T01:59:56.045Z,15.25
2023-10-12T02:01:05.983Z,15.26
2023-10-12T02:02:09.299Z,15.19
2023-10-12T02:03:19.536Z,15.26
2023-10-12T02:04:22.634Z,15.21
2023-10-12T02:05:26.549Z,15.14
2023-10-12T02:06:31.072Z,15.08
2023-10-12T02:07:34.280Z,15.15
2023-10-12T02:08:56.122Z,15.23
2023-10-12T02:09:59.486Z,15.32
2023-10-12T02:11:22.309Z,15.22
2023-10-12T02:12:26.895Z,15.26
2023-10-12T02:13:33.816Z,15.27
2023-10-12T02:14:35.358Z,15.31
2023-10-12T02:15:37.016Z,15.27
2023-10-12T02:16:39.673Z,15.21
2023-10-12T02:17:43.568Z,15.20
2023-10-12T02:18:48.464Z,15.12
2023-10-12T02:19:50.996Z,14.88
2023-10-12T02:21:07.414Z,15.01
2023-10-12T02:22:24.641Z,15.08
2023-10-12T02:23:33.552Z,15.06
2023-10-12T02:24:36.812Z,15.13
2023-10-12T02:25:41.917Z,15.10
2023-10-12T02:26:49.424Z,15.15
2023-10-12T02:27:57.879Z,15.20
2023-10-12T02:29:12.663Z,15.10
2023-10-12T02:30:19.634Z,15.21
2023-10-12T02:31:30.230Z,15.25
2023-10-12T02:32:47.485Z,15.21
2023-10-12T02:33:49.183Z,15.26
2023-10-12T02:34:57.387Z,15.02
2023-10-12T02:35:59.792Z,15.09
2023-10-12T02:37:13.363Z,15.13
2023-10-12T02:38:16.836Z,15.21
2023-10-12T02:39:22.375Z,15.24
2023-10-12T02:40:28.076Z,15.30
2023-10-12T02:41:29.641Z,15.30
2023-10-12T02:42:40.189Z,15.04
2023-10-12T02:43:51.332Z,15.04
2023-10-12T02:44:54.451Z,15.05
2023-10-12T02:46:02.819Z,15.13
2023-10-12T02:47:13.565Z,15.16
2023-10-12T02:48:24.461Z,15.30
2023-10-12T02:49:26.253Z,15.29
2023-10-12T02:50:34.217Z,15.05
2023-10-12T02:51:38.998Z,15.22
2023-10-12T02:52:44.763Z,15.21
2023-10-12T02:53:48.865Z,15.02
2023-10-12T02:54:55.634Z,15.18
2023-10-12T02:55:59.940Z,15.35
2023-10-12T02:57:05.110Z,15.30
2023-10-12T02:58:20.154Z,15.26
2023-10-12T02:59:21.726Z,15.46
2023-10-12T03:00:45.852Z,15.41
2023-10-12T03:01:50.504Z,15.55
2023-10-12T03:02:54.508Z,15.50
2023-10-12T03:03:56.819Z,15.45
2023-10-12T03:05:07.722Z,14.87
2023-10-12T03:06:10.205Z,15.23
2023-10-12T03:07:14.880Z,15.36
2023-10-12T03:08:18.195Z,15.44
2023-10-12T03:09:27.075Z,15.54
2023-10-12T03:10:28.625Z,15.54
2023-10-12T03:11:33.444Z,15.53
2023-10-12T03:12:42.780Z,15.54
2023-10-12T03:13:55.700Z,15.11
2023-10-12T03:14:57.460Z,14.98
2023-10-12T03:16:01.569Z,15.25
2023-10-12T03:17:06.556Z,15.32
2023-10-12T03:18:12.605Z,15.31
2023-10-12T03:19:26.915Z,15.40
2023-10-12T03:20:30.483Z,15.46
2023-10-12T03:21:35.123Z,15.48
2023-10-12T03:22:36.630Z,15.50
2023-10-12T03:23:39.961Z,15.44
2023-10-12T03:24:52.500Z,15.45
2023-10-12T03:25:54.311Z,15.53
2023-10-12T03:27:04.961Z,15.47
2023-10-12T03:28:25.025Z,15.45
2023-10-12T03:29:27.317Z,15.42
2023-10-12T03:30:44.909Z,15.35
2023-10-12T03:31:47.755Z,15.44
2023-10-12T03:32:51.137Z,15.22
2023-10-12T03:33:55.306Z,15.30
2023-10-12T03:34:57.724Z,15.38
2023-10-12T03:36:04.126Z,15.38
2023-10-12T03:37:08.365Z,15.42
2023-10-12T03:38:14.062Z,15.50
2023-10-12T03:39:26.755Z,15.46
2023-10-12T03:40:47.347Z,15.52
2023-10-12T03:42:07.998Z,15.60
2023-10-12T03:43:12.273Z,15.60
2023-10-12T03:44:20.125Z,15.60
2023-10-12T03:45:40.691Z,15.67
2023-10-12T03:46:47.217Z,15.77
2023-10-12T03:48:04.486Z,15.73
2023-10-12T03:49:06.177Z,15.78
2023-10-12T03:50:11.261Z,15.76
2023-10-12T03:51:25.684Z,15.74
2023-10-12T03:52:31.096Z,15.78
2023-10-12T03:53:38.349Z,15.82
2023-10-12T03:54:40.529Z,15.82
2023-10-12T03:55:49.863Z,15.82
2023-10-12T03:56:54.017Z,15.81
2023-10-12T03:58:07.834Z,15.80
2023-10-12T03:59:09.593Z,15.90
2023-10-12T04:00:11.839Z,15.83
2023-10-12T04:01:22.537Z,15.81
2023-10-12T04:02:25.712Z,15.86
2023-10-12T04:03:37.688Z,15.77
2023-10-12T04:04:46.660Z,15.79
2023-10-12T04:05:57.235Z,16.06
2023-10-12T04:07:01.667Z,15.79
2023-10-12T04:08:06.782Z,15.68
2023-10-12T04:09:16.101Z,15.62
2023-10-12T04:10:36.677Z,15.62
2023-10-12T04:11:48.729Z,15.71
2023-10-12T04:12:54.542Z,15.61
2023-10-12T04:13:59.927Z,15.57
2023-10-12T04:15:06.807Z,15.49
2023-10-12T04:16:08.395Z,15.58
2023-10-12T04:17:28.591Z,15.52
2023-10-12T04:18:30.289Z,15.61
2023-10-12T04:19:33.838Z,15.63
2023-10-12T04:20:35.528Z,15.60
2023-10-12T04:21:37.601Z,15.59
2023-10-12T04:23:02.439Z,15.55
2023-10-12T04:24:17.036Z,15.63
2023-10-12T04:25:30.895Z,15.59
2023-10-12T04:26:35.226Z,15.57
2023-10-12T04:27:40.331Z,15.53
2023-10-12T04:28:50.785Z,15.51
2023-10-12T04:29:57.813Z,15.45
2023-10-12T04:30:59.431Z,15.53
2023-10-12T04:32:17.279Z,15.46
2023-10-12T04:33:19.293Z,15.57
2023-10-12T04:34:27.900Z,15.55
2023-10-12T04:35:41.432Z,15.55
2023-10-12T04:36:46.279Z,15.51
2023-10-12T04:37:48.352Z,15.48
2023-10-12T04:38:58.934Z,15.45
2023-10-12T04:40:15.774Z,15.43
2023-10-12T04:41:17.314Z,15.41
2023-10-12T04:42:21.978Z,15.44
2023-10-12T04:43:25.321Z,15.36
2023-10-12T04:44:26.983Z,15.35
2023-10-12T04:45:31.391Z,15.30
2023-10-12T04:46:41.101Z,15.21
2023-10-12T04:47:47.112Z,15.12
2023-10-12T04:48:49.121Z,15.25
2023-10-12T04:49:50.675Z,15.33
2023-10-12T04:51:00.708Z,15.13
2023-10-12T04:52:02.790Z,14.99
2023-10-12T04:53:10.915Z,15.27
2023-10-12T04:54:24.495Z,14.95
2023-10-12T04:55:29.928Z,15.48
2023-10-12T04:56:37.533Z,15.65
2023-10-12T04:57:39.660Z,15.63
2023-10-12T04:58:57.257Z,15.77
2023-10-12T05:00:11.559Z,15.85
2023-10-12T05:01:21.774Z,15.96
2023-10-12T05:02:32.679Z,16.07
2023-10-12T05:03:37.160Z,16.11
2023-10-12T05:04:44.878Z,16.39
2023-10-12T05:06:04.794Z,16.31
2023-10-12T05:07:18.679Z,16.18
2023-10-12T05:08:21.889Z,15.22
2023-10-12T05:09:23.407Z,15.03
2023-10-12T05:10:37.478Z,15.31
2023-10-12T05:11:39.545Z,15.51
2023-10-12T05:12:41.132Z,15.64
2023-10-12T05:13:44.559Z,14.82
2023-10-12T05:14:46.644Z,15.18
2023-10-12T05:15:56.185Z,15.52
2023-10-12T05:16:57.964Z,15.55
2023-10-12T05:17:59.596Z,15.53
2023-10-12T05:19:01.249Z,15.45
2023-10-12T05:20:04.087Z,15.61
2023-10-12T05:21:09.821Z,15.81
2023-10-12T05:22:13.866Z,16.00
2023-10-12T05:23:15.497Z,16.06
2023-10-12T05:24:17.375Z,15.96
2023-10-12T05:25:19.072Z,15.96
2023-10-12T05:26:26.547Z,15.74
2023-10-12T05:27:30.002Z,15.49
2023-10-12T05:28:32.258Z,15.77
2023-10-12T05:29:39.583Z,15.95
2023-10-12T05:30:48.835Z,16.04
2023-10-12T05:32:09.414Z,15.76
2023-10-12T05:33:29.679Z,16.03
2023-10-12T05:34:35.517Z,16.16
2023-10-12T05:35:54.194Z,16.18
2023-10-12T05:36:55.731Z,16.25
2023-10-12T05:37:57.599Z,16.27
2023-10-12T05:39:14.352Z,16.19
2023-10-12T05:40:18.080Z,16.30
2023-10-12T05:41:38.994Z,16.30
2023-10-12T05:42:41.154Z,16.40
2023-10-12T05:43:42.752Z,16.34
2023-10-12T05:44:44.416Z,16.34
2023-10-12T05:45:46.392Z,16.35
2023-10-12T05:46:52.634Z,16.36
2023-10-12T05:47:54.575Z,16.37
2023-10-12T05:48:59.277Z,16.40
2023-10-12T05:50:00.848Z,16.40
2023-10-12T05:51:02.367Z,16.43
2023-10-12T05:52:06.048Z,16.42
2023-10-12T05:53:08.331Z,16.42
2023-10-12T05:54:09.936Z,16.45
2023-10-12T05:55:22.165Z,16.45
2023-10-12T05:56:24.587Z,16.49
2023-10-12T05:57:31.497Z,16.46
2023-10-12T05:58:35.216Z,16.44
2023-10-12T05:59:39.849Z,16.45
2023-10-12T06:00:53.639Z,16.42
2023-10-12T06:01:56.801Z,16.41
2023-10-12T06:02:58.394Z,16.08
2023-10-12T06:04:00.565Z,16.16
2023-10-12T06:05:02.610Z,16.27
2023-10-12T06:06:04.340Z,16.35
2023-10-12T06:07:06.607Z,16.37
2023-10-12T06:08:08.904Z,16.35
2023-10-12T06:09:14.873Z,16.38
2023-10-12T06:10:16.412Z,16.40
2023-10-12T06:11:19.610Z,16.34
2023-10-12T06:12:25.713Z,16.38
2023-10-12T06:13:41.245Z,16.44
2023-10-12T06:14:54.110Z,16.52
2023-10-12T06:15:55.812Z,16.51
2023-10-12T06:17:01.396Z,16.54
2023-10-12T06:18:03.474Z,16.52
2023-10-12T06:19:06.517Z,16.55
2023-10-12T06:20:16.642Z,16.48
2023-10-12T06:21:20.873Z,16.52
2023-10-12T06:22:24.608Z,16.48
2023-10-12T06:23:26.292Z,16.44
2023-10-12T06:24:37.130Z,16.35
2023-10-12T06:25:45.152Z,16.37
2023-10-12T06:26:52.041Z,16.42
2023-10-12T06:27:55.879Z,16.43
2023-10-12T06:29:00.532Z,16.43
2023-10-12T06:30:07.131Z,16.50
2023-10-12T06:31:09.291Z,16.54
2023-10-12T06:32:18.371Z,16.57
2023-10-12T06:33:23.214Z,16.91
2023-10-12T06:34:24.823Z,16.81
2023-10-12T06:35:29.270Z,16.70
2023-10-12T06:36:39.949Z,16.57
2023-10-12T06:37:51.013Z,16.61
2023-10-12T06:39:24.985Z,16.57
2023-10-12T06:40:27.001Z,16.69
2023-10-12T06:41:34.921Z,16.63
2023-10-12T06:42:43.672Z,16.61
2023-10-12T06:43:45.190Z,16.61
2023-10-12T06:44:51.556Z,16.64
2023-10-12T06:45:53.934Z,16.67
2023-10-12T06:46:58.746Z,16.40
2023-10-12T06:48:20.376Z,16.60
2023-10-12T06:49:30.282Z,16.68
2023-10-12T06:50:35.707Z,16.68
2023-10-12T06:51:37.322Z,16.68
2023-10-12T06:52:39.214Z,16.52
2023-10-12T06:53:52.511Z,16.44
2023-10-12T06:55:00.641Z,16.48
2023-10-12T06:56:17.698Z,16.64
2023-10-12T06:57:19.434Z,16.65
2023-10-12T06:58:21.634Z,16.67
2023-10-12T06:59:29.012Z,16.75
2023-10-12T07:00:57.418Z,16.82
2023-10-12T07:02:11.296Z,16.97
2023-10-12T07:03:12.949Z,17.00
2023-10-12T07:04:16.110Z,16.78
2023-10-12T07:05:21.614Z,16.83
2023-10-12T07:06:23.181Z,16.82
2023-10-12T07:07:29.541Z,16.87
2023-10-12T07:08:31.163Z,16.96
2023-10-12T07:09:43.650Z,16.90
2023-10-12T07:10:52.785Z,17.01
2023-10-12T07:11:54.274Z,17.42
2023-10-12T07:13:00.882Z,17.35
2023-10-12T07:14:06.110Z,17.36
2023-10-12T07:15:12.641Z,17.32
2023-10-12T07:16:17.607Z,17.40
2023-10-12T07:17:19.545Z,17.40
2023-10-12T07:18:23.441Z,17.41
2023-10-12T07:19:25.950Z,17.45
2023-10-12T07:20:33.542Z,17.53
2023-10-12T07:21:35.280Z,17.60
2023-10-12T07:22:38.231Z,17.56
2023-10-12T07:23:43.776Z,17.85
2023-10-12T07:24:46.240Z,17.82
2023-10-12T07:25:52.240Z,17.77
2023-10-12T07:26:53.840Z,17.82
2023-10-12T07:28:00.643Z,17.74
2023-10-12T07:29:09.088Z,17.85
2023-10-12T07:30:31.863Z,17.82
2023-10-12T07:31:42.750Z,17.99
2023-10-12T07:32:56.386Z,18.07
2023-10-12T07:33:58.341Z,18.13
2023-10-12T07:35:08.298Z,18.15
2023-10-12T07:36:12.367Z,18.23
2023-10-12T07:37:15.078Z,18.31
2023-10-12T07:38:36.003Z,18.33
2023-10-12T07:39:43.814Z,18.45
2023-10-12T07:40:58.203Z,18.39
2023-10-12T07:42:02.649Z,18.43
2023-10-12T07:43:08.600Z,18.42
2023-10-12T07:44:10.697Z,18.42
2023-10-12T07:45:18.201Z,18.42
2023-10-12T07:46:37.973Z,17.63
2023-10-12T07:47:42.310Z,18.02
2023-10-12T07:48:45.634Z,18.18
2023-10-12T07:49:53.398Z,18.25
2023-10-12T07:50:54.920Z,18.07
2023-10-12T07:52:26.619Z,18.10
2023-10-12T07:53:30.464Z,18.27
2023-10-12T07:54:52.057Z,18.22
2023-10-12T07:55:55.479Z,18.33
2023-10-12T07:56:56.988Z,18.44
2023-10-12T07:58:01.472Z,18.43
2023-10-12T07:59:03.100Z,18.47
2023-10-12T08:00:11.067Z,18.49
2023-10-12T08:01:23.603Z,18.57
2023-10-12T08:03:04.238Z,18.61
2023-10-12T08:04:21.451Z,18.47
2023-10-12T08:05:26.434Z,18.54
2023-10-12T08:06:37.070Z,18.50
2023-10-12T08:07:58.889Z,18.44
2023-10-12T08:09:21.446Z,18.52
2023-10-12T08:10:31.589Z,18.46
2023-10-12T08:11:36.167Z,18.51
2023-10-12T08:12:40.905Z,18.51
2023-10-12T08:13:49.500Z,18.54
2023-10-12T08:14:54.742Z,18.55
2023-10-12T08:15:57.833Z,18.62
2023-10-12T08:17:18.563Z,18.66
2023-10-12T08:18:42.165Z,18.72
2023-10-12T08:19:44.689Z,18.84
2023-10-12T08:20:54.553Z,18.81
2023-10-12T08:22:00.155Z,18.85
2023-10-12T08:23:03.593Z,18.81
2023-10-12T08:24:22.294Z,18.80
2023-10-12T08:25:28.882Z,18.89
2023-10-12T08:26:36.705Z,18.94
2023-10-12T08:28:01.057Z,18.91
2023-10-12T08:29:10.245Z,18.92
2023-10-12T08:30:16.257Z,18.70
2023-10-12T08:31:21.868Z,18.90
2023-10-12T08:32:30.514Z,18.93
2023-10-12T08:33:50.109Z,18.96
2023-10-12T08:35:00.853Z,18.97
2023-10-12T08:36:24.329Z,18.99
2023-10-12T08:37:28.898Z,19.02
2023-10-12T08:38:41.509Z,19.00
2023-10-12T08:39:59.016Z,19.06
2023-10-12T08:41:33.116Z,19.12
2023-10-12T08:42:35.808Z,19.18
2023-10-12T08:43:46.475Z,19.16
2023-10-12T08:45:00.468Z,19.15
2023-10-12T08:46:07.156Z,19.17
2023-10-12T08:47:11.064Z,19.13
2023-10-12T08:48:18.504Z,19.12
2023-10-12T08:49:49.169Z,19.12
2023-10-12T08:50:59.637Z,19.21
2023-10-12T08:52:06.004Z,19.21
2023-10-12T08:53:08.973Z,19.20
2023-10-12T08:54:16.844Z,19.12
2023-10-12T08:55:26.339Z,19.13
2023-10-12T08:56:33.726Z,18.96
2023-10-12T08:58:03.112Z,18.57
2023-10-12T08:59:05.606Z,18.91
2023-10-12T09:00:26.580Z,19.02
2023-10-12T09:01:33.000Z,19.16
2023-10-12T09:02:40.140Z,19.18
2023-10-12T09:03:47.695Z,19.23
2023-10-12T09:04:50.246Z,19.11
2023-10-12T09:06:01.737Z,19.16
2023-10-12T09:07:04.851Z,19.20
2023-10-12T09:08:06.562Z,19.06
2023-10-12T09:09:08.144Z,19.01
2023-10-12T09:10:30.157Z,18.96
2023-10-12T09:11:39.328Z,19.22
2023-10-12T09:12:41.590Z,19.30
2023-10-12T09:13:49.473Z,19.32
2023-10-12T09:14:56.038Z,19.41
2023-10-12T09:16:04.039Z,19.41
2023-10-12T09:17:06.391Z,19.53
2023-10-12T09:18:11.061Z,19.56
2023-10-12T09:19:30.029Z,19.55
2023-10-12T09:20:32.990Z,19.52
2023-10-12T09:21:40.980Z,19.61
2023-10-12T09:22:42.779Z,19.64
2023-10-12T09:24:07.451Z,19.67
2023-10-12T09:25:15.583Z,19.70
2023-10-12T09:26:21.434Z,19.74
2023-10-12T09:27:37.393Z,19.78
2023-10-12T09:28:46.489Z,19.86
2023-10-12T09:29:58.704Z,20.18
2023-10-12T09:31:01.602Z,20.09
2023-10-12T09:32:35.430Z,19.99
2023-10-12T09:34:00.877Z,20.06
2023-10-12T09:35:15.899Z,20.10
2023-10-12T09:36:20.454Z,20.38
2023-10-12T09:37:22.223Z,20.19
2023-10-12T09:38:23.780Z,20.04
2023-10-12T09:39:29.207Z,20.02
2023-10-12T09:40:36.678Z,19.98
2023-10-12T09:41:40.465Z,19.95
2023-10-12T09:42:42.124Z,19.89
2023-10-12T09:43:45.288Z,19.74
2023-10-12T09:44:47.062Z,19.74
2023-10-12T09:45:49.099Z,19.83
2023-10-12T09:46:56.296Z,19.89
2023-10-12T09:47:59.186Z,19.88
2023-10-12T09:49:07.401Z,19.90
2023-10-12T09:50:14.261Z,19.94
2023-10-12T09:51:18.828Z,19.51
2023-10-12T09:52:22.954Z,19.62
2023-10-12T09:53:32.196Z,19.84
2023-10-12T09:54:48.050Z,20.02
2023-10-12T09:56:11.820Z,20.18
2023-10-12T09:57:29.015Z,20.30
2023-10-12T09:58:33.608Z,20.34
2023-10-12T09:59:39.821Z,20.35
2023-10-12T10:01:01.225Z,20.37
2023-10-12T10:02:05.074Z,20.31
2023-10-12T10:03:10.194Z,19.97
2023-10-12T10:04:27.033Z,20.02
2023-10-12T10:05:53.024Z,20.20
2023-10-12T10:07:19.176Z,19.94
2023-10-12T10:08:21.732Z,20.19
2023-10-12T10:09:42.481Z,20.24
2023-10-12T10:10:44.010Z,20.36
2023-10-12T10:11:46.858Z,20.32
2023-10-12T10:12:50.100Z,20.19
2023-10-12T10:13:54.265Z,20.33
2023-10-12T10:15:11.372Z,20.30
2023-10-12T10:16:16.013Z,20.38
2023-10-12T10:17:25.058Z,20.21
2023-10-12T10:18:29.379Z,19.91
2023-10-12T10:19:31.207Z,19.90
2023-10-12T10:20:52.789Z,20.11
2023-10-12T10:22:06.115Z,20.18
2023-10-12T10:23:15.546Z,20.33
2023-10-12T10:24:25.095Z,20.39
2023-10-12T10:25:55.833Z,20.54
2023-10-12T10:26:59.838Z,20.53
2023-10-12T10:28:11.599Z,20.43
2023-10-12T10:29:18.676Z,20.51
2023-10-12T10:30:39.508Z,20.51
2023-10-12T10:31:44.909Z,20.54
2023-10-12T10:32:46.668Z,20.54
2023-10-12T10:33:52.367Z,20.56
2023-10-12T10:34:57.788Z,20.60
2023-10-12T10:36:13.082Z,20.64
2023-10-12T10:37:49.364Z,20.64
2023-10-12T10:38:53.926Z,20.73
2023-10-12T10:39:58.989Z,20.70
2023-10-12T10:41:08.740Z,20.66
2023-10-12T10:42:11.051Z,20.71
2023-10-12T10:43:16.739Z,20.69
2023-10-12T10:44:22.711Z,20.69
2023-10-12T10:45:26.714Z,20.71
2023-10-12T10:46:28.820Z,20.71
2023-10-12T10:47:33.238Z,20.79
2023-10-12T10:49:00.121Z,20.80
2023-10-12T10:49:57.040Z,20.76
2023-10-12T10:51:00.302Z,20.65
2023-10-12T10:52:08.284Z,20.69
2023-10-12T10:53:09.896Z,20.74
2023-10-12T10:54:19.806Z,20.73
2023-10-12T10:55:25.378Z,20.58
2023-10-12T10:56:37.518Z,20.66
2023-10-12T10:57:39.394Z,20.66
2023-10-12T10:58:41.665Z,20.65
2023-10-12T10:59:48.128Z,20.67
2023-10-12T11:00:57.767Z,20.72
2023-10-12T11:02:00.735Z,20.66
2023-10-12T11:03:04.713Z,20.57
2023-10-12T11:04:10.674Z,20.68
2023-10-12T11:05:20.362Z,20.68
2023-10-12T11:06:25.121Z,20.66
2023-10-12T11:07:26.708Z,20.74
2023-10-12T11:08:28.406Z,20.43
2023-10-12T11:09:32.739Z,20.62
2023-10-12T11:10:35.336Z,20.72
2023-10-12T11:11:46.067Z,20.81
2023-10-12T11:12:49.436Z,20.90
2023-10-12T11:13:53.777Z,20.88
2023-10-12T11:15:08.827Z,20.93
2023-10-12T11:16:22.639Z,21.28
2023-10-12T11:17:24.586Z,21.17
2023-10-12T11:18:26.239Z,21.05
2023-10-12T11:19:28.498Z,21.00
2023-10-12T11:20:43.983Z,20.95
2023-10-12T11:21:47.511Z,20.99
2023-10-12T11:22:49.158Z,20.88
2023-10-12T11:23:52.260Z,20.92
2023-10-12T11:24:58.412Z,20.92
2023-10-12T11:26:05.644Z,20.88
2023-10-12T11:27:09.128Z,20.81
2023-10-12T11:28:38.998Z,20.97
2023-10-12T11:29:50.214Z,20.96
2023-10-12T11:31:03.183Z,20.96
2023-10-12T11:32:12.304Z,20.99
2023-10-12T11:33:14.159Z,20.99
2023-10-12T11:34:24.489Z,20.90
2023-10-12T11:35:41.505Z,20.97
2023-10-12T11:36:47.058Z,20.98
2023-10-12T11:37:48.775Z,20.95
2023-10-12T11:39:00.744Z,20.90
2023-10-12T11:40:07.926Z,20.95
2023-10-12T11:41:17.866Z,20.92
2023-10-12T11:42:19.758Z,20.96
2023-10-12T11:43:22.617Z,20.97
2023-10-12T11:44:47.072Z,20.97
2023-10-12T11:46:02.666Z,21.05
2023-10-12T11:47:11.466Z,21.05
2023-10-12T11:48:21.257Z,21.00
2023-10-12T11:49:22.864Z,20.99
2023-10-12T11:50:36.304Z,20.94
2023-10-12T11:51:54.294Z,20.92
2023-10-12T11:52:56.189Z,21.01
2023-10-12T11:53:58.798Z,20.98
2023-10-12T11:55:02.441Z,20.98
2023-10-12T11:56:30.011Z,20.99
2023-10-12T11:57:32.971Z,21.01
2023-10-12T11:58:34.774Z,20.89
2023-10-12T11:59:36.649Z,20.95
2023-10-12T12:00:38.303Z,20.97
2023-10-12T12:01:41.253Z,20.96
2023-10-12T12:02:43.281Z,20.95
2023-10-12T12:03:46.663Z,20.95
2023-10-12T12:05:01.737Z,20.94
2023-10-12T12:06:12.992Z,21.03
2023-10-12T12:07:14.764Z,20.88
2023-10-12T12:08:16.420Z,20.93
2023-10-12T12:09:19.009Z,20.91
2023-10-12T12:10:40.820Z,20.93
2023-10-12T12:11:42.361Z,21.02
2023-10-12T12:12:43.971Z,20.96
2023-10-12T12:13:48.687Z,20.95
2023-10-12T12:14:50.236Z,20.85
2023-10-12T12:15:56.075Z,20.39
2023-10-12T12:16:58.599Z,19.83
2023-10-12T12:18:01.156Z,20.26
2023-10-12T12:19:02.892Z,20.52
2023-10-12T12:20:08.742Z,19.90
2023-10-12T12:21:15.914Z,19.49
2023-10-12T12:22:17.671Z,20.05
2023-10-12T12:23:20.717Z,20.35
2023-10-12T12:24:22.339Z,20.61
2023-10-12T12:25:33.486Z,20.73
2023-10-12T12:26:35.314Z,20.87
2023-10-12T12:27:39.988Z,20.88
2023-10-12T12:28:44.571Z,20.92
2023-10-12T12:30:02.589Z,20.98
2023-10-12T12:31:11.902Z,21.07
2023-10-12T12:32:14.139Z,21.16
2023-10-12T12:33:18.669Z,19.98
2023-10-12T12:34:39.657Z,19.97
2023-10-12T12:35:42.016Z,20.56
2023-10-12T12:36:43.585Z,20.68
2023-10-12T12:37:45.125Z,20.75
2023-10-12T12:38:49.953Z,20.79
2023-10-12T12:40:23.211Z,20.88
2023-10-12T12:41:25.681Z,21.05
2023-10-12T12:42:28.143Z,21.28
2023-10-12T12:43:30.574Z,21.20
2023-10-12T12:44:32.221Z,20.92
2023-10-12T12:45:36.311Z,20.53
2023-10-12T12:46:38.533Z,20.52
2023-10-12T12:47:40.272Z,20.47
2023-10-12T12:48:46.659Z,20.56
2023-10-12T12:49:48.238Z,20.74
2023-10-12T12:50:49.774Z,20.83
2023-10-12T12:51:51.373Z,20.32
2023-10-12T12:52:52.936Z,20.58
2023-10-12T12:53:54.929Z,20.78
2023-10-12T12:54:56.867Z,20.89
2023-10-12T12:55:58.476Z,20.94
2023-10-12T12:57:00.096Z,20.98
2023-10-12T12:58:01.685Z,21.01
2023-10-12T12:59:05.201Z,21.06
2023-10-12T13:00:09.512Z,21.05
2023-10-12T13:01:11.810Z,21.05
2023-10-12T13:02:15.539Z,21.07
2023-10-12T13:03:18.327Z,21.10
2023-10-12T13:04:20.877Z,21.13
2023-10-12T13:05:22.594Z,21.42
2023-10-12T13:06:27.198Z,21.15
2023-10-12T13:07:29.509Z,21.12
2023-10-12T13:08:31.537Z,21.12
2023-10-12T13:09:35.394Z,21.12
2023-10-12T13:10:37.352Z,21.16
2023-10-12T13:11:38.982Z,20.36
2023-10-12T13:12:46.708Z,20.39
2023-10-12T13:13:50.087Z,20.72
2023-10-12T13:14:51.613Z,20.92
2023-10-12T13:15:53.244Z,20.96
2023-10-12T13:16:56.103Z,20.99
2023-10-12T13:17:58.958Z,21.03
2023-10-12T13:19:02.532Z,21.27
2023-10-12T13:20:04.568Z,21.19
2023-10-12T13:21:07.905Z,21.07
2023-10-12T13:22:09.699Z,21.05
2023-10-12T13:23:14.305Z,21.03
2023-10-12T13:24:16.076Z,21.05
2023-10-12T13:25:19.449Z,21.02
2023-10-12T13:26:23.504Z,21.04
2023-10-12T13:27:33.396Z,21.06
2023-10-12T13:28:35.242Z,21.11
2023-10-12T13:29:37.369Z,21.05
2023-10-12T13:30:39.003Z,21.07
2023-10-12T13:31:40.913Z,20.96
2023-10-12T13:32:48.609Z,21.07
2023-10-12T13:33:51.134Z,21.11
2023-10-12T13:34:53.022Z,21.07
2023-10-12T13:35:57.325Z,21.08
2023-10-12T13:36:58.883Z,21.05
2023-10-12T13:38:04.011Z,20.99
2023-10-12T13:39:10.776Z,20.99
2023-10-12T13:40:16.631Z,20.97
2023-10-12T13:41:19.256Z,20.97
2023-10-12T13:42:22.627Z,20.92
2023-10-12T13:43:27.788Z,20.91
2023-10-12T13:44:31.456Z,20.90
2023-10-12T13:45:33.115Z,20.88
2023-10-12T13:46:39.812Z,20.81
2023-10-12T13:47:44.333Z,20.82
2023-10-12T13:48:50.339Z,20.80
2023-10-12T13:49:55.133Z,20.79
2023-10-12T13:51:05.807Z,20.73
2023-10-12T13:52:13.436Z,20.78
2023-10-12T13:53:16.699Z,20.76
2023-10-12T13:54:19.009Z,20.80
2023-10-12T13:55:21.399Z,20.81
2023-10-12T13:56:25.098Z,20.77
2023-10-12T13:57:27.168Z,20.71
2023-10-12T13:58:28.693Z,20.70
2023-10-12T13:59:30.902Z,20.65
2023-10-12T14:00:35.490Z,20.58
2023-10-12T14:01:38.550Z,20.64
2023-10-12T14:02:40.231Z,20.67
2023-10-12T14:03:46.280Z,20.68
2023-10-12T14:04:50.636Z,20.73
2023-10-12T14:05:52.168Z,20.75
2023-10-12T14:06:58.125Z,20.74
2023-10-12T14:08:00.066Z,20.78
2023-10-12T14:09:01.610Z,20.77
2023-10-12T14:10:06.442Z,20.77
2023-10-12T14:11:08.342Z,20.77
2023-10-12T14:12:11.633Z,20.78
2023-10-12T14:13:16.442Z,20.74
2023-10-12T14:14:18.016Z,20.75
2023-10-12T14:15:20.748Z,20.70
2023-10-12T14:16:22.487Z,20.70
2023-10-12T14:17:25.788Z,20.69
2023-10-12T14:18:32.066Z,20.71
2023-10-12T14:19:37.291Z,20.73
2023-10-12T14:20:40.280Z,20.74
2023-10-12T14:21:42.880Z,21.00
2023-10-12T14:22:45.529Z,20.90
2023-10-12T14:23:48.810Z,20.79